Time;durP1;ratioP1;P1;durP2;ratioP2;P2;SDS_P1;SDS_P2;PMS_P1;PMS_P2;Temp;Humidity;BMP_temperature;BMP_pressure;BME280_temperature;BME280_humidity;BME280_pressure;Samples;Min_cycle;Max_cycle;Signal;HPM_P1;HPM_P2
2021/03/22 00:19:28;;;;;;;36.85;15.48;;;;;;;0.06;73.32;98367.11;1631757;82;21327;31
2021/03/22 00:29:07;;;;;;;53.25;20.77;;;;;;;0.12;73.38;98373.53;1666745;79;21426;31
2021/03/22 00:35:33;;;;;;;47.67;19.92;;;;;;;0.20;75.77;98364.63;1703559;78;22706;31
2021/03/22 00:44:33;;;;;;;45.10;19.30;;;;;;;0.37;76.04;98367.24;1598235;84;22711;-80
2021/03/22 01:25:53;;;;;;;48.98;20.50;;;;;;;0.70;75.94;98310.22;1746376;78;21117;-80
2021/03/22 01:59:08;;;;;;;24.07;10.68;;;;;;;0.56;74.83;98288.45;1704624;80;22609;31
2021/03/22 02:15:26;;;;;;;27.00;10.50;;;;;;;0.37;74.35;98281.58;1679395;81;21269;31
2021/03/22 03:21:38;;;;;;;28.25;13.38;;;;;;;0.38;74.97;98239.84;1709660;78;21449;-84
2021/03/22 03:24:45;;;;;;;37.90;18.10;;;;;;;0.13;77.23;98202.69;1668500;81;21241;31
2021/03/22 03:27:42;;;;;;;31.65;14.95;;;;;;;0.38;77.66;98233.00;1672380;81;21169;-82
2021/03/22 03:30:42;;;;;;;51.45;20.00;;;;;;;0.38;77.83;98230.89;1660314;83;21135;-81
2021/03/22 03:33:45;;;;;;;36.70;15.30;;;;;;;0.38;76.96;98232.16;1656242;84;21131;-84
2021/03/22 03:36:37;;;;;;;33.48;15.50;;;;;;;0.38;75.63;98231.73;1674816;82;21289;-84
2021/03/22 03:50:25;;;;;;;40.75;15.85;;;;;;;0.41;76.41;98227.03;1823938;78;23911;-84
2021/03/22 03:53:01;;;;;;;43.75;19.92;;;;;;;0.38;76.59;98219.38;1828426;77;21362;-85
2021/03/22 03:56:05;;;;;;;42.05;17.92;;;;;;;0.44;76.91;98214.67;1769239;80;21315;-86
2021/03/22 03:58:41;;;;;;;39.38;17.37;;;;;;;0.51;77.66;98218.52;1730682;81;21172;-85
2021/03/22 04:01:39;;;;;;;35.55;16.10;;;;;;;0.57;78.25;98215.13;1704623;80;21256;-83
2021/03/22 04:14:58;;;;;;;69.07;23.45;;;;;;;0.66;79.41;98215.58;1789432;78;22655;-85
2021/03/22 04:20:56;;;;;;;54.63;21.97;;;;;;;0.57;78.29;98226.20;1710354;80;21316;-86
2021/03/22 04:23:45;;;;;;;53.10;22.05;;;;;;;0.56;78.89;98224.94;1709962;84;21146;-83
2021/03/22 04:26:46;;;;;;;60.65;25.97;;;;;;;0.57;78.22;98225.34;1695695;84;21171;-84
2021/03/22 04:32:52;;;;;;;52.20;21.07;;;;;;;0.59;78.38;98231.32;1694780;84;21317;-83
2021/03/22 04:35:32;;;;;;;57.23;23.18;;;;;;;0.61;78.91;98229.61;1652892;86;21188;-82
2021/03/22 04:38:24;;;;;;;56.30;21.95;;;;;;;0.63;79.63;98230.47;1700837;82;21243;-84
2021/03/22 04:44:43;;;;;;;41.02;19.25;;;;;;;0.69;79.74;98224.51;1640561;87;21291;-84
2021/03/22 04:47:16;;;;;;;56.10;24.35;;;;;;;0.70;79.23;98235.19;1678313;85;21254;-85
2021/03/22 04:49:50;;;;;;;69.07;26.15;;;;;;;0.71;78.67;98233.04;1671258;86;21310;-84
2021/03/22 04:52:39;;;;;;;70.55;24.95;;;;;;;0.74;78.62;98235.61;1659630;83;21326;-84
2021/03/22 04:58:26;;;;;;;58.50;22.40;;;;;;;0.74;79.15;98233.89;1709365;83;21130;-86
2021/03/22 05:01:00;;;;;;;48.35;21.77;;;;;;;0.78;79.70;98229.64;1681855;85;21315;-85
2021/03/22 05:03:38;;;;;;;46.55;18.42;;;;;;;0.80;79.23;98234.33;1708731;83;21331;-86
2021/03/22 05:06:23;;;;;;;50.48;21.42;;;;;;;0.84;78.55;98236.47;1685518;84;21559;-86
2021/03/22 05:08:59;;;;;;;45.73;18.50;;;;;;;0.89;78.72;98234.31;1713098;82;21284;-86
2021/03/22 05:40:13;;;;;;;83.60;30.92;;;;;;;1.29;78.36;98218.91;1618383;84;21213;31
2021/03/22 05:49:51;;;;;;;84.87;36.38;;;;;;;1.52;77.25;98222.70;1727328;80;21240;31
2021/03/22 05:59:24;;;;;;;102.20;41.85;;;;;;;1.74;76.98;98228.61;1694380;79;21241;31
2021/03/22 06:02:14;;;;;;;120.00;47.58;;;;;;;1.79;77.10;98228.17;1652370;82;21217;31
2021/03/22 06:08:41;;;;;;;56.58;25.25;;;;;;;1.96;76.40;98228.09;1659133;83;22604;31
2021/03/22 06:12:03;;;;;;;52.95;21.60;;;;;;;2.04;76.09;98226.77;1647363;83;21248;-82
2021/03/22 06:24:29;;;;;;;65.00;26.10;;;;;;;2.50;75.72;98220.09;1652736;83;21331;-82
2021/03/22 06:30:35;;;;;;;52.43;23.20;;;;;;;2.62;74.41;98218.31;1605592;86;21185;31
2021/03/22 06:43:23;;;;;;;43.48;18.05;;;;;;;2.90;71.78;98206.11;1504843;91;21274;-87
2021/03/22 06:46:10;;;;;;;38.30;15.83;;;;;;;2.91;71.06;98199.68;1525445;90;21297;31
2021/03/22 06:52:07;;;;;;;48.05;18.62;;;;;;;2.83;70.44;98201.47;1520702;90;21275;31
2021/03/22 07:07:24;;;;;;;46.58;19.32;;;;;;;2.92;71.41;98227.05;1610485;87;21374;-82
2021/03/22 07:10:02;;;;;;;44.93;20.30;;;;;;;3.01;71.14;98232.99;1581322;89;21332;-84
2021/03/22 07:12:39;;;;;;;46.55;19.62;;;;;;;3.07;71.17;98240.64;1561526;91;21278;-85
2021/03/22 07:15:25;;;;;;;84.13;35.70;;;;;;;3.11;71.06;98243.16;1630822;83;21518;-87
2021/03/22 07:21:05;;;;;;;39.80;17.25;;;;;;;3.19;71.11;98225.95;1623111;86;21179;-91
2021/03/22 07:26:39;;;;;;;32.00;13.58;;;;;;;3.50;70.25;98244.06;1676105;82;20186;-87
2021/03/22 07:30:29;;;;;;;31.77;14.60;;;;;;;3.46;69.01;98243.27;1719386;82;21230;-89
2021/03/22 07:33:15;;;;;;;36.15;15.95;;;;;;;3.56;69.04;98245.28;1701596;82;21381;-87
2021/03/22 07:36:42;;;;;;;35.78;16.90;;;;;;;3.68;69.10;98234.89;1508621;91;21250;-88
2021/03/22 07:43:02;;;;;;;30.12;14.63;;;;;;;3.97;69.17;98234.97;1547040;90;21235;-90
2021/03/22 07:46:20;;;;;;;27.82;13.05;;;;;;;4.03;67.28;98232.77;1809685;77;22916;-90
2021/03/22 08:02:31;;;;;;;29.07;12.05;;;;;;;4.27;63.74;98239.31;1668694;83;21151;-85
2021/03/22 08:05:33;;;;;;;19.55;9.85;;;;;;;4.38;61.19;98234.88;1672685;85;21110;-82
2021/03/22 08:15:35;;;;;;;26.33;12.50;;;;;;;4.87;62.43;98219.95;1631987;82;21579;-84
2021/03/22 08:18:21;;;;;;;20.57;10.40;;;;;;;5.09;60.99;98223.47;1652481;86;21226;-92
2021/03/22 08:21:12;;;;;;;23.87;12.07;;;;;;;5.16;59.33;98219.92;1604278;85;21202;-89
2021/03/22 08:34:04;;;;;;;24.95;11.25;;;;;;;5.58;55.68;98217.44;1687391;82;21161;-83
2021/03/22 08:37:13;;;;;;;30.35;11.55;;;;;;;5.80;58.48;98211.88;1676639;81;21238;-83
2021/03/22 08:40:15;;;;;;;26.52;11.10;;;;;;;5.90;52.91;98203.91;1669160;84;21288;-82
2021/03/22 08:43:44;;;;;;;24.25;11.30;;;;;;;5.82;50.58;98203.21;1692459;81;21204;-83
2021/03/22 08:47:24;;;;;;;24.60;11.08;;;;;;;5.99;56.80;98204.20;1697882;81;21212;-81
2021/03/22 08:50:16;;;;;;;23.77;9.60;;;;;;;5.94;52.85;98199.53;1696193;80;21145;31
2021/03/22 08:53:17;;;;;;;26.73;10.35;;;;;;;6.14;50.88;98201.72;1638201;87;21292;-92
2021/03/22 08:56:46;;;;;;;19.02;9.48;;;;;;;6.19;54.00;98197.33;1688167;80;21308;-88
2021/03/22 08:59:24;;;;;;;23.73;9.80;;;;;;;6.32;49.60;98201.31;1699438;81;21249;-82
2021/03/22 09:05:42;;;;;;;22.60;10.87;;;;;;;6.24;53.87;98194.64;1699976;79;21148;-91
2021/03/22 09:09:13;;;;;;;17.27;8.65;;;;;;;6.36;53.08;98195.65;1719836;80;21236;31
2021/03/22 09:19:25;;;;;;;19.95;9.40;;;;;;;6.93;48.87;98200.78;1617551;86;21152;-93
2021/03/22 09:22:39;;;;;;;15.10;7.95;;;;;;;7.09;48.81;98198.66;1812073;78;23098;-89
2021/03/22 09:28:58;;;;;;;18.10;8.83;;;;;;;7.04;47.29;98159.15;1649963;85;21703;-90
2021/03/22 09:31:48;;;;;;;21.65;8.90;;;;;;;7.30;44.59;98189.48;1660726;82;21144;-88
2021/03/22 09:34:42;;;;;;;35.68;13.10;;;;;;;7.29;45.85;98191.69;1654018;84;22626;-92
2021/03/22 09:37:54;;;;;;;16.62;9.25;;;;;;;7.39;47.12;98200.05;1677654;84;21290;-84
2021/03/22 09:40:36;;;;;;;20.03;11.43;;;;;;;7.71;47.61;98187.52;1820647;77;28283;-93
2021/03/22 09:43:13;;;;;;;30.25;14.75;;;;;;;7.84;45.03;98182.84;1822203;78;21090;-88
2021/03/22 09:46:01;;;;;;;20.77;9.78;;;;;;;7.77;45.74;98173.95;1804470;78;21283;-87
2021/03/22 09:48:41;;;;;;;19.52;9.45;;;;;;;7.90;46.39;98182.69;1758548;81;21282;-84
2021/03/22 09:51:17;;;;;;;18.85;9.68;;;;;;;7.91;45.31;98183.92;1742459;81;21128;-86
2021/03/22 09:53:59;;;;;;;19.67;9.40;;;;;;;7.92;46.89;98183.49;1744970;81;21258;-87
2021/03/22 09:56:34;;;;;;;34.90;15.50;;;;;;;7.87;43.77;98179.72;1750566;78;21272;-82
2021/03/22 10:03:02;;;;;;;24.65;12.28;;;;;;;8.14;47.24;98167.72;1645423;86;21196;-89
2021/03/22 10:05:57;;;;;;;21.17;10.03;;;;;;;8.08;45.30;98167.07;1651253;86;21165;-80
2021/03/22 10:08:31;;;;;;;40.03;23.20;;;;;;;8.18;44.83;98167.19;1680409;83;21294;-80
2021/03/22 10:11:38;;;;;;;17.50;10.10;;;;;;;8.25;42.64;98169.13;1679536;83;21180;-92
2021/03/22 10:14:17;;;;;;;21.02;10.55;;;;;;;8.19;44.18;98166.28;1597789;87;21250;-85
2021/03/22 10:16:50;;;;;;;16.75;8.70;;;;;;;8.28;45.80;98166.47;1640052;83;22046;-91
2021/03/22 10:19:36;;;;;;;19.05;9.45;;;;;;;8.22;43.52;98169.24;1804983;77;23459;-93
2021/03/22 10:25:18;;;;;;;22.10;10.30;;;;;;;8.45;44.45;98160.32;1729232;81;21696;-91
2021/03/22 10:27:46;;;;;;;21.37;9.88;;;;;;;8.65;42.67;98158.84;1725711;81;21256;-86
2021/03/22 10:30:22;;;;;;;18.73;11.15;;;;;;;8.85;43.97;98160.79;1738277;81;21142;-86
2021/03/22 10:33:03;;;;;;;20.68;9.50;;;;;;;8.84;43.71;98162.54;1723767;81;21122;-85
2021/03/22 10:35:56;;;;;;;17.48;9.05;;;;;;;8.74;43.62;98169.77;1743740;81;21319;-84
2021/03/22 10:38:34;;;;;;;29.92;16.65;;;;;;;8.63;43.75;98165.37;1712573;83;21165;-85
2021/03/22 10:41:09;;;;;;;25.50;13.55;;;;;;;8.45;44.92;98169.84;1738031;81;21244;-86
2021/03/22 10:43:39;;;;;;;25.92;14.93;;;;;;;8.48;44.61;98170.60;1708753;83;21273;-85
2021/03/22 10:46:19;;;;;;;37.63;19.50;;;;;;;8.58;43.34;98165.98;1684840;84;21330;-85
2021/03/22 10:49:10;;;;;;;18.92;10.23;;;;;;;8.75;43.89;98165.00;1730142;83;21250;-85
2021/03/22 10:51:49;;;;;;;20.27;11.30;;;;;;;8.85;42.22;98159.03;1735818;83;21236;-85
2021/03/22 10:54:21;;;;;;;18.87;8.53;;;;;;;8.82;43.32;98161.74;1728686;81;21286;-86
2021/03/22 10:56:57;;;;;;;18.23;9.20;;;;;;;8.74;40.01;98163.74;1797497;78;23738;-89
2021/03/22 11:05:11;;;;;;;18.65;9.85;;;;;;;9.06;39.76;98160.08;1813438;77;21298;-93
2021/03/22 11:07:57;;;;;;;19.50;8.98;;;;;;;8.91;40.55;98153.67;1777540;79;21298;-87
2021/03/22 11:10:26;;;;;;;29.12;15.68;;;;;;;9.01;39.75;98150.30;1754338;82;21316;-85
2021/03/22 11:12:55;;;;;;;27.58;16.00;;;;;;;9.27;42.48;98143.38;1816542;78;21216;-87
2021/03/22 11:15:39;;;;;;;20.75;11.65;;;;;;;9.50;39.96;98145.16;1807179;79;21235;-86
2021/03/22 11:18:25;;;;;;;37.03;19.10;;;;;;;9.66;42.57;98145.00;1666304;84;21205;-92
2021/03/22 11:21:22;;;;;;;33.15;16.73;;;;;;;10.04;40.29;98137.98;1691787;80;21261;-86
2021/03/22 11:24:38;;;;;;;48.33;27.42;;;;;;;10.68;40.03;98134.19;1818004;77;23034;-91
2021/03/22 11:28:27;;;;;;;21.87;11.70;;;;;;;10.99;41.21;98130.77;1629681;87;21224;-90
2021/03/22 11:31:39;;;;;;;30.15;15.70;;;;;;;11.50;36.42;98130.73;1748434;79;24373;-92
2021/03/22 11:34:35;;;;;;;30.25;18.07;;;;;;;11.71;39.60;98125.01;1724061;80;21154;-85
2021/03/22 11:37:39;;;;;;;27.05;13.40;;;;;;;11.94;37.89;98135.26;1690024;83;21204;-86
2021/03/22 11:40:21;;;;;;;27.27;15.25;;;;;;;12.60;34.99;98126.55;1687251;85;21320;-84
2021/03/22 11:43:26;;;;;;;19.52;10.90;;;;;;;13.38;38.67;98122.62;1720310;83;21146;-85
2021/03/22 11:46:16;;;;;;;20.52;11.43;;;;;;;13.98;36.47;98115.52;1726787;83;21320;-86
2021/03/22 11:49:00;;;;;;;23.70;14.65;;;;;;;14.98;37.57;98105.14;1688263;83;21296;-85
2021/03/22 11:51:52;;;;;;;33.05;15.05;;;;;;;15.49;35.75;98109.51;1726517;83;21288;-86
2021/03/22 11:54:25;;;;;;;27.02;15.60;;;;;;;16.48;34.67;98106.36;1720887;83;21651;-86
2021/03/22 12:00:02;;;;;;;16.10;9.75;;;;;;;15.98;30.14;98109.14;1778372;79;22917;-86
2021/03/22 12:02:57;;;;;;;12.68;8.23;;;;;;;15.31;30.34;98103.14;1735825;82;21306;-85
2021/03/22 12:05:39;;;;;;;15.88;8.68;;;;;;;14.49;31.26;98099.17;1706897;80;21161;-85
2021/03/22 12:08:38;;;;;;;15.98;9.83;;;;;;;13.98;30.82;98101.16;1715103;83;21287;-86
2021/03/22 12:11:20;;;;;;;17.37;8.88;;;;;;;14.65;31.96;98090.49;1695880;84;21288;-86
2021/03/22 12:13:50;;;;;;;16.50;8.95;;;;;;;15.22;28.25;98095.85;1711643;84;21201;-84
2021/03/22 12:27:12;;;;;;;14.60;10.05;;;;;;;17.82;21.98;98098.66;1783270;75;28401;-87
2021/03/22 12:29:41;;;;;;;15.18;9.28;;;;;;;17.80;25.74;98101.04;1775270;80;21345;-86
2021/03/22 12:32:31;;;;;;;29.72;14.60;;;;;;;16.81;24.50;98100.30;1777450;80;21097;-87
2021/03/22 12:34:59;;;;;;;18.77;11.70;;;;;;;16.66;26.08;98096.92;1783158;80;21203;-87
2021/03/22 12:40:40;;;;;;;13.75;9.33;;;;;;;16.00;28.29;98103.33;1731282;82;21260;-85
2021/03/22 12:43:22;;;;;;;19.55;11.90;;;;;;;15.91;26.68;98097.34;1732060;81;21330;-85
2021/03/22 12:56:25;;;;;;;20.72;11.70;;;;;;;12.43;29.81;98101.28;1862065;75;27966;-89
2021/03/22 12:58:58;;;;;;;21.80;12.65;;;;;;;12.10;30.84;98105.91;1813478;79;21258;-86
2021/03/22 13:01:27;;;;;;;14.60;9.03;;;;;;;11.42;31.93;98101.57;1816112;78;21113;-84
2021/03/22 13:06:36;;;;;;;17.73;9.45;;;;;;;10.34;33.27;98108.27;1785146;78;23044;-89
2021/03/22 13:09:05;;;;;;;16.55;9.53;;;;;;;9.98;33.19;98114.85;1804298;80;21414;-85
2021/03/22 13:11:37;;;;;;;15.80;8.88;;;;;;;9.42;33.90;98110.87;1772857;79;21679;-92
2021/03/22 13:14:05;;;;;;;18.05;8.98;;;;;;;9.08;34.33;98104.28;1697201;84;22031;-92
2021/03/22 13:16:33;;;;;;;22.07;8.80;;;;;;;8.74;34.20;98113.21;1702985;84;21173;-92
2021/03/22 13:19:01;;;;;;;16.48;9.20;;;;;;;8.51;35.00;98116.09;1697235;84;21197;-90
2021/03/22 13:21:28;;;;;;;18.80;8.30;;;;;;;8.35;35.42;98114.41;1694380;83;21610;-90
2021/03/22 13:23:56;;;;;;;17.75;7.83;;;;;;;8.24;36.08;98114.38;1698043;84;21169;-95
2021/03/22 13:26:26;;;;;;;15.72;8.80;;;;;;;8.02;37.69;98118.04;1705111;83;21179;-90
2021/03/22 13:28:55;;;;;;;15.18;7.87;;;;;;;7.93;38.11;98114.84;1712514;82;21278;-84
2021/03/22 13:31:23;;;;;;;16.42;8.05;;;;;;;7.80;38.19;98112.66;1694201;82;21281;-91
2021/03/22 13:33:52;;;;;;;14.75;7.85;;;;;;;7.84;37.12;98112.55;1715142;81;21157;-88
2021/03/22 13:36:23;;;;;;;19.25;7.70;;;;;;;7.65;38.08;98114.81;1722747;83;21134;-88
2021/03/22 13:38:50;;;;;;;16.32;7.08;;;;;;;7.65;37.94;98115.27;1685816;81;21311;-91
2021/03/22 13:41:32;;;;;;;15.63;7.67;;;;;;;7.60;38.76;98111.53;1656354;85;21165;-86
2021/03/22 13:44:03;;;;;;;16.02;8.00;;;;;;;7.67;38.29;98114.77;1677113;82;21339;-86
2021/03/22 13:46:32;;;;;;;15.90;8.23;;;;;;;7.68;38.69;98116.45;1720670;83;21254;-84
2021/03/22 13:49:00;;;;;;;16.48;8.10;;;;;;;7.73;38.94;98117.18;1723935;81;21254;-87
2021/03/22 13:51:34;;;;;;;22.70;8.38;;;;;;;7.74;38.60;98118.89;1679163;83;21593;-91
2021/03/22 13:57:13;;;;;;;14.55;7.72;;;;;;;7.51;39.20;98128.59;1718405;82;21373;-92
2021/03/22 13:59:57;;;;;;;19.05;8.73;;;;;;;7.51;39.99;98129.43;1640623;83;21180;-91
2021/03/22 14:02:24;;;;;;;25.30;9.30;;;;;;;7.64;38.96;98125.20;1628337;87;21198;-94
2021/03/22 14:08:11;;;;;;;14.47;7.75;;;;;;;7.60;39.45;98129.64;1683778;79;21851;-91
2021/03/22 14:11:00;;;;;;;15.72;7.37;;;;;;;7.59;39.72;98132.26;1677773;84;21748;-92
2021/03/22 14:13:28;;;;;;;13.38;7.62;;;;;;;7.53;39.29;98128.94;1676328;84;21146;-91
2021/03/22 14:15:55;;;;;;;19.02;6.92;;;;;;;7.60;39.72;98127.47;1642859;86;21201;-91
2021/03/22 14:18:25;;;;;;;19.02;7.33;;;;;;;7.52;39.87;98127.69;1651973;86;21783;-90
2021/03/22 14:20:57;;;;;;;13.45;7.22;;;;;;;7.69;39.79;98131.94;1686519;81;21287;-91
2021/03/22 14:23:59;;;;;;;15.32;7.03;;;;;;;7.66;39.66;98129.88;1640311;86;21330;-92
2021/03/22 14:26:27;;;;;;;15.15;6.08;;;;;;;7.67;39.70;98132.43;1640133;86;21153;-91
2021/03/22 14:28:54;;;;;;;16.65;6.83;;;;;;;7.66;39.09;98139.81;1650203;86;21192;-89
2021/03/22 14:31:51;;;;;;;14.73;7.25;;;;;;;7.67;39.31;98134.18;1641567;85;21192;-92
2021/03/22 14:34:42;;;;;;;16.35;7.15;;;;;;;7.56;39.34;98140.97;1633845;84;21179;-94
2021/03/22 14:37:10;;;;;;;14.65;6.85;;;;;;;7.59;39.50;98141.31;1651388;84;21208;-92
2021/03/22 14:39:38;;;;;;;11.22;6.08;;;;;;;7.59;39.85;98145.19;1649190;85;21237;-93
2021/03/22 14:42:06;;;;;;;12.05;5.80;;;;;;;7.45;39.89;98158.50;1671379;84;21627;-91
2021/03/22 14:47:31;;;;;;;12.20;6.00;;;;;;;7.25;40.28;98157.75;1709321;83;21269;-90
2021/03/22 14:49:58;;;;;;;15.45;7.90;;;;;;;6.78;40.15;98116.73;1690474;81;21139;-88
2021/03/22 14:52:26;;;;;;;20.30;9.80;;;;;;;7.01;40.87;98159.25;1690383;85;21907;-88
2021/03/22 14:54:54;;;;;;;11.80;5.83;;;;;;;6.95;40.82;98166.25;1698973;81;21174;-87
2021/03/22 14:57:21;;;;;;;14.65;6.30;;;;;;;6.86;40.90;98172.94;1704291;82;21180;-91
2021/03/22 14:59:49;;;;;;;22.40;6.62;;;;;;;6.65;41.40;98169.61;1713820;82;21162;-90
2021/03/22 15:02:16;;;;;;;11.12;6.47;;;;;;;6.57;41.64;98174.95;1733091;81;21609;-90
2021/03/22 15:04:45;;;;;;;16.67;7.33;;;;;;;6.49;42.39;98179.45;1728232;82;21328;-85
2021/03/22 15:07:13;;;;;;;13.08;7.08;;;;;;;6.42;42.62;98181.30;1728573;81;21624;-87
2021/03/22 15:09:41;;;;;;;14.07;7.35;;;;;;;6.33;43.54;98187.98;1715038;82;21486;-88
2021/03/22 15:12:10;;;;;;;14.70;7.42;;;;;;;6.20;43.38;98188.69;1730437;82;21169;-88
2021/03/22 15:14:37;;;;;;;14.80;6.90;;;;;;;6.09;43.94;98186.35;1691060;80;21624;-85
2021/03/22 15:17:04;;;;;;;14.83;7.62;;;;;;;6.03;44.11;98197.23;1661475;85;21189;-89
2021/03/22 15:19:33;;;;;;;17.25;7.53;;;;;;;6.03;43.48;98202.39;1677327;83;21185;-90
2021/03/22 15:22:02;;;;;;;16.02;7.70;;;;;;;5.86;44.81;98206.14;1727936;81;22094;-89
2021/03/22 15:24:30;;;;;;;14.53;7.50;;;;;;;5.57;45.37;98190.81;1697817;82;21178;-88
2021/03/22 15:27:01;;;;;;;14.38;7.25;;;;;;;5.74;45.28;98216.26;1674838;82;21145;-90
2021/03/22 15:29:29;;;;;;;15.93;7.25;;;;;;;5.63;44.90;98222.08;1665740;83;21283;-84
2021/03/22 15:31:56;;;;;;;15.95;7.83;;;;;;;5.63;44.42;98225.08;1681213;82;21289;-88
2021/03/22 15:34:24;;;;;;;22.07;8.60;;;;;;;5.45;45.86;98228.85;1686376;80;21182;-89
2021/03/22 15:36:52;;;;;;;14.18;7.15;;;;;;;5.46;45.26;98232.70;1669582;84;21195;-88
2021/03/22 15:39:19;;;;;;;17.42;7.40;;;;;;;5.38;46.06;98241.02;1659266;85;21233;-89
2021/03/22 15:41:47;;;;;;;15.38;8.55;;;;;;;5.27;46.38;98243.80;1694714;84;21139;-89
2021/03/22 15:44:14;;;;;;;13.62;7.92;;;;;;;5.17;45.71;98235.78;1705794;82;21174;-91
2021/03/22 15:46:41;;;;;;;16.32;7.70;;;;;;;5.17;47.05;98244.80;1720229;82;21583;-90
2021/03/22 15:49:08;;;;;;;15.32;7.25;;;;;;;5.16;47.12;98246.53;1714919;82;21171;-91
2021/03/22 15:51:37;;;;;;;14.78;7.55;;;;;;;5.14;47.65;98257.75;1704772;81;21249;-84
2021/03/22 15:54:05;;;;;;;15.38;7.42;;;;;;;5.10;47.73;98263.39;1719848;80;21207;-90
2021/03/22 15:56:33;;;;;;;18.77;8.35;;;;;;;5.05;47.46;98265.63;1687266;83;21152;-90
2021/03/22 15:59:00;;;;;;;20.27;8.50;;;;;;;4.98;48.42;98270.87;1703047;83;21181;-91
2021/03/22 16:01:27;;;;;;;21.05;8.45;;;;;;;4.93;48.54;98271.41;1700591;83;21942;-91
2021/03/22 16:03:56;;;;;;;17.05;8.43;;;;;;;4.87;49.15;98270.63;1688690;81;21170;-92
2021/03/22 16:06:24;;;;;;;19.07;8.53;;;;;;;4.84;48.83;98272.81;1676173;82;21167;-91
2021/03/22 16:08:51;;;;;;;17.57;9.43;;;;;;;4.80;49.76;98281.91;1683520;85;21666;-89
2021/03/22 16:11:20;;;;;;;18.52;7.75;;;;;;;4.78;49.66;98281.92;1705299;82;21151;-88
2021/03/22 16:13:48;;;;;;;22.85;8.40;;;;;;;4.71;50.23;98287.58;1704611;82;21185;-90
2021/03/22 16:16:15;;;;;;;16.42;7.70;;;;;;;4.68;49.88;98298.39;1714961;82;21189;-87
2021/03/22 16:18:42;;;;;;;16.40;7.33;;;;;;;4.65;49.60;98302.28;1710988;83;21189;-86
2021/03/22 16:21:11;;;;;;;20.23;8.60;;;;;;;4.62;48.45;98307.05;1692118;82;21271;-88
2021/03/22 16:23:38;;;;;;;15.80;7.62;;;;;;;4.55;48.87;98310.11;1669743;84;21165;-91
2021/03/22 16:26:07;;;;;;;14.55;6.95;;;;;;;4.52;48.48;98315.77;1680256;84;21206;-90
2021/03/22 16:28:35;;;;;;;14.43;7.40;;;;;;;4.47;49.08;98324.81;1756540;80;21170;-90
2021/03/22 16:31:03;;;;;;;17.35;6.95;;;;;;;4.47;49.17;98322.23;1770724;80;21582;-89
2021/03/22 16:33:35;;;;;;;16.23;7.35;;;;;;;4.42;48.67;98326.61;1744462;81;21159;-90
2021/03/22 16:36:09;;;;;;;15.23;7.37;;;;;;;4.40;48.88;98328.36;1588799;82;21194;-88
2021/03/22 16:38:39;;;;;;;15.53;7.20;;;;;;;4.41;48.50;98340.78;1711087;82;21186;-90
2021/03/22 16:41:14;;;;;;;15.58;7.90;;;;;;;4.39;49.01;98344.66;1743922;80;21143;-89
2021/03/22 16:43:42;;;;;;;21.97;8.15;;;;;;;4.32;49.28;98348.19;1697854;80;21164;-90
2021/03/22 16:46:17;;;;;;;18.65;7.72;;;;;;;4.32;48.97;98343.05;1702901;82;21697;-86
2021/03/22 16:48:48;;;;;;;15.08;8.38;;;;;;;4.30;49.64;98359.78;1696384;83;21642;-90
2021/03/22 16:51:16;;;;;;;18.05;8.55;;;;;;;4.29;50.13;98361.08;1694630;83;21118;-88
2021/03/22 16:53:43;;;;;;;15.93;7.53;;;;;;;4.30;49.72;98370.07;1690139;83;21130;-83
2021/03/22 16:56:13;;;;;;;13.78;6.55;;;;;;;4.22;51.57;98374.87;1701258;83;21143;-87
2021/03/22 16:58:41;;;;;;;16.87;7.58;;;;;;;4.11;52.23;98389.14;1701259;83;21152;-89
2021/03/22 17:01:08;;;;;;;14.53;6.37;;;;;;;4.08;50.95;98394.30;1692924;83;21138;-89
2021/03/22 17:03:36;;;;;;;10.53;5.40;;;;;;;4.02;51.46;98393.97;1690352;84;21296;-88
2021/03/22 17:06:05;;;;;;;11.12;6.35;;;;;;;3.91;52.33;98407.34;1700076;83;21223;-87
2021/03/22 17:08:33;;;;;;;11.53;5.90;;;;;;;3.88;53.11;98413.79;1697433;83;21655;-89
2021/03/22 17:11:03;;;;;;;12.28;5.55;;;;;;;3.81;52.79;98416.86;1696715;83;21320;-83
2021/03/22 17:13:32;;;;;;;32.73;13.40;;;;;;;3.75;53.06;98415.19;1672409;83;21289;-83
2021/03/22 17:16:00;;;;;;;33.60;14.38;;;;;;;3.71;52.82;98425.08;1688084;84;21263;-88
2021/03/22 17:18:29;;;;;;;25.65;10.95;;;;;;;3.62;53.33;98422.61;1692533;83;21258;-85
2021/03/22 17:22:01;;;;;;;32.38;14.40;;;;;;;3.56;54.68;98441.91;1827754;76;23068;-86
2021/03/22 17:24:55;;;;;;;22.10;9.88;;;;;;;3.47;53.57;98438.98;1808831;78;21252;-88
2021/03/22 17:27:54;;;;;;;21.05;6.83;;;;;;;3.40;55.35;98443.73;1674601;83;21280;-88
2021/03/22 17:30:27;;;;;;;14.55;6.30;;;;;;;3.29;56.26;98452.80;1711894;84;21335;-88
2021/03/22 17:32:56;;;;;;;10.45;5.97;;;;;;;3.30;55.83;98453.23;1755876;79;21577;-88
2021/03/22 17:35:28;;;;;;;15.98;7.33;;;;;;;3.32;55.29;98463.08;1750635;78;21155;-84
2021/03/22 17:37:57;;;;;;;14.80;6.65;;;;;;;3.31;54.82;98461.35;1750191;80;21192;-85
2021/03/22 17:40:29;;;;;;;16.23;6.90;;;;;;;3.33;54.46;98470.34;1756163;81;21242;-90
2021/03/22 17:42:57;;;;;;;46.73;14.35;;;;;;;3.33;53.86;98470.34;1751489;81;21263;-89
2021/03/22 17:45:29;;;;;;;27.67;10.58;;;;;;;3.30;54.33;98481.50;1749446;81;21236;-85
2021/03/22 17:47:57;;;;;;;16.40;7.05;;;;;;;3.30;54.30;98478.05;1728018;82;21256;-84
2021/03/22 17:50:27;;;;;;;28.38;11.73;;;;;;;3.26;55.75;98482.79;1755791;81;21270;-88
2021/03/22 17:52:56;;;;;;;25.08;9.45;;;;;;;3.24;54.38;98482.79;1764523;81;21155;-88
2021/03/22 17:55:26;;;;;;;18.30;9.28;;;;;;;3.21;56.14;98482.83;1756185;81;21842;-85
2021/03/22 17:57:54;;;;;;;28.75;9.50;;;;;;;3.14;57.54;98492.69;1756431;81;21152;-88
2021/03/22 18:00:24;;;;;;;18.98;9.05;;;;;;;3.15;55.72;98489.28;1742175;82;21235;-88
2021/03/22 18:02:54;;;;;;;21.30;8.73;;;;;;;3.12;57.42;98491.45;1740295;82;21294;-88
2021/03/22 18:05:26;;;;;;;15.95;7.78;;;;;;;3.10;56.88;98494.86;1743828;81;21263;-86
2021/03/22 18:21:14;;;;;;;27.95;10.20;;;;;;;3.13;57.34;98515.41;1751849;80;23365;-84
2021/03/22 18:23:42;;;;;;;24.63;9.28;;;;;;;3.11;55.83;98515.41;1760446;81;21517;-84
2021/03/22 18:26:09;;;;;;;14.15;7.00;;;;;;;3.12;56.14;98517.53;1699033;81;21284;-84
2021/03/22 18:28:36;;;;;;;29.10;10.38;;;;;;;3.17;55.32;98524.80;1658294;87;21393;-83
2021/03/22 18:31:05;;;;;;;29.15;12.70;;;;;;;3.14;56.28;98524.39;1630161;88;21138;-82
2021/03/22 18:33:33;;;;;;;21.12;9.08;;;;;;;3.19;55.43;98528.22;1702226;81;21121;-83
2021/03/22 18:36:02;;;;;;;18.37;9.40;;;;;;;3.21;55.81;98531.63;1633126;79;21235;-86
2021/03/22 18:38:29;;;;;;;23.92;11.43;;;;;;;3.26;55.27;98530.31;1614121;87;21462;-84
2021/03/22 18:40:58;;;;;;;18.00;7.83;;;;;;;3.27;55.40;98536.73;1614000;87;21161;-87
2021/03/22 18:43:30;;;;;;;17.10;7.72;;;;;;;3.30;56.65;98533.30;1682469;81;21202;-87
2021/03/22 18:45:59;;;;;;;20.92;8.15;;;;;;;3.30;56.05;98533.30;1669223;81;21318;-85
2021/03/22 18:48:28;;;;;;;15.43;6.20;;;;;;;3.34;54.80;98543.56;1681252;83;21901;-87
2021/03/22 18:50:57;;;;;;;20.60;8.73;;;;;;;3.35;55.19;98544.41;1681843;83;21341;-89
2021/03/22 18:53:25;;;;;;;23.60;9.78;;;;;;;3.41;55.04;98554.66;1681227;84;21164;-91
2021/03/22 18:55:54;;;;;;;16.17;7.58;;;;;;;3.42;55.21;98551.65;1723276;82;21192;-89
2021/03/22 18:58:22;;;;;;;20.48;10.30;;;;;;;3.43;54.92;98558.08;1726378;83;21160;-83
2021/03/22 19:00:51;;;;;;;17.15;8.73;;;;;;;3.39;56.32;98553.37;1661574;80;21187;-87
2021/03/22 19:03:25;;;;;;;18.92;9.30;;;;;;;3.43;55.49;98559.36;1672325;83;21167;-87
2021/03/22 19:05:54;;;;;;;18.15;7.20;;;;;;;3.46;55.54;98564.91;1692011;81;21142;-84
2021/03/22 19:08:22;;;;;;;17.57;7.58;;;;;;;3.47;56.53;98569.20;1715412;81;21168;-84
2021/03/22 19:10:52;;;;;;;22.10;8.53;;;;;;;3.46;56.66;98573.90;1683663;82;21734;-85
2021/03/22 19:13:22;;;;;;;15.98;7.30;;;;;;;3.46;55.42;98576.47;1662543;80;22017;-86
2021/03/22 19:15:51;;;;;;;15.40;7.40;;;;;;;3.45;56.08;98576.06;1659917;85;21562;-87
2021/03/22 19:18:19;;;;;;;15.15;8.10;;;;;;;3.48;55.82;98582.05;1661216;85;21164;-88
2021/03/22 19:20:48;;;;;;;20.57;9.40;;;;;;;3.49;55.84;98582.89;1653072;85;21157;-88
2021/03/22 19:23:24;;;;;;;21.62;8.55;;;;;;;3.47;57.10;98585.47;1656098;85;21159;-87
2021/03/22 19:25:52;;;;;;;18.62;8.85;;;;;;;3.48;56.72;98588.88;1653604;85;21294;-89